Terminal Aerodrome Forecast
Issued by NWS Austin/San Antonio, TX

Home | Current Version | Previous Version | Text Only | Print | Product List | Glossary On
Versions: 1 2 3 4 5 6 7 8 9 10 11 12 13 14 15 16 17
000
FTUS44 KEWX 280500
TAFSAT
TAF
KSAT 280526Z 2806/2912 36015KT P6SM OVC035
     FM280700 36016KT P6SM VCSH OVC035
     FM280900 36013KT P6SM -RA OVC035
     FM281600 35008KT P6SM OVC035
     FM282000 36013KT P6SM BKN100
     FM290400 00000KT P6SM SKC=

USA.gov is the U.S. government's official web portal to all federal, state and local government web resources and services.